createdAt,value
2022-09-10T17:42:09.186Z,58.40
2022-09-10T17:44:39.671Z,36.97
2022-09-10T17:47:09.773Z,39.30
2022-09-10T17:49:39.224Z,34.97
2022-09-10T17:52:08.364Z,26.57
2022-09-10T17:54:37.275Z,20.80
2022-09-10T17:57:06.477Z,28.43
2022-09-10T17:59:35.308Z,26.17
2022-09-10T18:02:07.218Z,30.73
2022-09-10T18:04:36.234Z,40.10
2022-09-10T18:07:05.133Z,22.23
2022-09-10T18:09:33.981Z,31.17
2022-09-10T18:12:03.158Z,32.53
2022-09-10T18:14:32.294Z,26.23
2022-09-10T18:17:01.147Z,20.90
2022-09-10T18:19:33.291Z,22.03
2022-09-10T18:22:02.785Z,33.27
2022-09-10T18:24:34.960Z,29.67
2022-09-10T18:27:05.608Z,29.83
2022-09-10T18:29:35.163Z,32.70
2022-09-10T18:32:04.649Z,29.87
2022-09-10T18:34:35.005Z,22.00
2022-09-10T18:37:04.851Z,32.93
2022-09-10T18:39:34.385Z,26.30
2022-09-10T18:42:03.667Z,27.83
2022-09-10T18:44:36.701Z,23.23
2022-09-10T18:47:17.898Z,27.20
2022-09-10T18:49:59.463Z,26.97
2022-09-10T18:52:29.221Z,25.43
2022-09-10T18:54:58.502Z,27.93
2022-09-10T18:57:27.774Z,25.37
2022-09-10T18:59:57.906Z,28.87
2022-09-10T19:02:29.993Z,23.83
2022-09-10T19:05:18.058Z,26.40
2022-09-10T19:07:52.806Z,32.50
2022-09-10T19:10:24.879Z,26.07
2022-09-10T19:12:53.904Z,33.30
2022-09-10T19:15:23.153Z,29.80
2022-09-10T19:17:52.063Z,31.63
2022-09-10T19:20:23.202Z,29.60
2022-09-10T19:22:52.436Z,25.57
2022-09-10T19:25:22.969Z,24.83
2022-09-10T19:27:53.098Z,25.03
2022-09-10T19:30:22.008Z,25.87
2022-09-10T19:32:51.021Z,22.40
2022-09-10T19:35:21.644Z,17.17
2022-09-10T19:37:50.560Z,27.33
2022-09-10T19:40:19.435Z,22.73
2022-09-10T19:42:48.682Z,32.67
2022-09-10T19:45:18.020Z,23.53
2022-09-10T19:47:47.266Z,27.10
2022-09-10T19:50:18.343Z,32.63
2022-09-10T19:52:52.052Z,32.27
2022-09-10T19:55:21.366Z,46.87
2022-09-10T19:57:50.953Z,46.83
2022-09-10T20:00:42.953Z,43.70
2022-09-10T20:03:10.274Z,50.67
2022-09-10T20:05:39.798Z,43.90
2022-09-10T20:08:11.027Z,43.87
2022-09-10T20:10:52.136Z,47.80
2022-09-10T20:13:21.290Z,48.67
2022-09-10T20:15:50.456Z,48.97
2022-09-10T20:18:19.437Z,57.03
2022-09-10T20:20:48.216Z,57.80
2022-09-10T20:23:18.806Z,64.50
2022-09-10T20:25:47.771Z,55.97
2022-09-10T20:28:16.818Z,63.33
2022-09-10T20:30:45.975Z,56.60
2022-09-10T20:33:14.892Z,53.10
2022-09-10T20:35:46.787Z,79.30
2022-09-10T20:38:18.041Z,60.33
2022-09-10T20:40:47.455Z,72.90
2022-09-10T20:43:16.381Z,83.93
2022-09-10T20:45:46.315Z,82.47
2022-09-10T20:48:15.247Z,52.93
2022-09-10T20:50:53.551Z,41.73
2022-09-10T20:53:24.092Z,40.30
2022-09-10T20:55:53.386Z,43.37
2022-09-10T20:58:24.403Z,51.03
2022-09-10T21:00:53.509Z,37.53
2022-09-10T21:03:23.678Z,39.13
2022-09-10T21:05:52.677Z,41.23
2022-09-10T21:08:24.051Z,38.07
2022-09-10T21:10:53.272Z,36.43
2022-09-10T21:13:25.026Z,27.00
2022-09-10T21:15:58.429Z,25.07
2022-09-10T21:18:34.287Z,23.77
2022-09-10T21:21:11.801Z,19.53
2022-09-10T21:23:47.002Z,20.23
2022-09-10T21:26:17.633Z,32.07
2022-09-10T21:28:46.835Z,29.70
2022-09-10T21:31:16.352Z,34.47
2022-09-10T21:33:46.437Z,30.97
2022-09-10T21:36:16.948Z,27.13
2022-09-10T21:38:50.345Z,37.33
2022-09-10T21:41:39.688Z,44.20
2022-09-10T21:44:12.492Z,48.90
2022-09-10T21:46:41.934Z,37.80
2022-09-10T21:49:11.063Z,41.93
2022-09-10T21:51:40.093Z,45.30
2022-09-10T21:54:15.081Z,39.90
2022-09-10T21:56:43.974Z,37.70
2022-09-10T21:59:16.679Z,35.43
2022-09-10T22:01:47.233Z,35.97
2022-09-10T22:04:22.116Z,35.90
2022-09-10T22:06:52.077Z,33.73
2022-09-10T22:09:23.200Z,34.40
2022-09-10T22:11:54.478Z,39.80
2022-09-10T22:14:25.253Z,43.77
2022-09-10T22:16:55.225Z,40.60
2022-09-10T22:19:26.129Z,44.73
2022-09-10T22:22:13.901Z,50.27
2022-09-10T22:24:48.625Z,50.33
2022-09-10T22:27:18.058Z,57.43
2022-09-10T22:29:47.211Z,42.80
2022-09-10T22:32:16.063Z,42.37
2022-09-10T22:34:46.315Z,52.73
2022-09-10T22:37:15.425Z,47.57
2022-09-10T22:39:45.761Z,48.27
2022-09-10T22:42:15.386Z,42.70
2022-09-10T22:44:44.348Z,36.17
2022-09-10T22:47:13.223Z,39.43
2022-09-10T22:49:45.451Z,27.80
2022-09-10T22:52:15.237Z,34.40
2022-09-10T22:54:45.678Z,27.00
2022-09-10T22:57:14.586Z,25.50
2022-09-10T22:59:43.893Z,26.23
2022-09-10T23:02:12.870Z,31.37
2022-09-10T23:04:43.021Z,29.57
2022-09-10T23:07:12.733Z,23.93
2022-09-10T23:09:41.515Z,30.20
2022-09-10T23:12:12.293Z,34.00
2022-09-10T23:14:41.180Z,28.20
2022-09-10T23:17:10.173Z,32.23
2022-09-10T23:19:39.047Z,35.70
2022-09-10T23:22:26.720Z,41.27
2022-09-10T23:24:55.690Z,32.07
2022-09-10T23:27:26.148Z,51.43
2022-09-10T23:29:55.078Z,47.50
2022-09-10T23:32:23.826Z,49.47
2022-09-10T23:34:52.857Z,44.43
2022-09-10T23:37:21.867Z,48.10
2022-09-10T23:39:51.236Z,52.03
2022-09-10T23:42:20.494Z,48.17
2022-09-10T23:44:50.985Z,46.90
2022-09-10T23:47:20.037Z,49.93
2022-09-10T23:49:49.043Z,38.13
2022-09-10T23:52:17.939Z,43.37
2022-09-10T23:54:47.567Z,44.33
2022-09-10T23:57:17.670Z,43.33
2022-09-10T23:59:46.534Z,43.30
